sensor_id;sensor_type;location;lat;lon;timestamp;pressure;altitude;pressure_sealevel;temperature;humidity
77366;BME280;66430;50.182;11.704;2023-07-16T00:00:27;94472.07;;;23.19;42.96
77366;BME280;66430;50.182;11.704;2023-07-16T00:02:52;94469.19;;;23.27;42.68
77366;BME280;66430;50.182;11.704;2023-07-16T00:05:18;94464.56;;;22.77;42.79
77366;BME280;66430;50.182;11.704;2023-07-16T00:07:43;94462.55;;;23.14;42.64
77366;BME280;66430;50.182;11.704;2023-07-16T00:10:09;94447.79;;;23.41;42.33
77366;BME280;66430;50.182;11.704;2023-07-16T00:12:33;94430.66;;;23.47;42.68
77366;BME280;66430;50.182;11.704;2023-07-16T00:14:59;94437.40;;;23.41;42.32
77366;BME280;66430;50.182;11.704;2023-07-16T00:17:24;94444.28;;;23.30;42.14
77366;BME280;66430;50.182;11.704;2023-07-16T00:19:49;94453.18;;;23.48;41.64
77366;BME280;66430;50.182;11.704;2023-07-16T00:22:15;94460.37;;;23.64;41.17
77366;BME280;66430;50.182;11.704;2023-07-16T00:24:41;94461.02;;;23.42;41.83
77366;BME280;66430;50.182;11.704;2023-07-16T00:27:06;94440.90;;;24.03;40.85
77366;BME280;66430;50.182;11.704;2023-07-16T00:29:32;94432.22;;;23.91;40.47
77366;BME280;66430;50.182;11.704;2023-07-16T00:31:57;94435.33;;;23.71;40.01
77366;BME280;66430;50.182;11.704;2023-07-16T00:34:23;94415.89;;;24.07;39.84
77366;BME280;66430;50.182;11.704;2023-07-16T00:36:48;94430.74;;;23.46;40.83
77366;BME280;66430;50.182;11.704;2023-07-16T00:39:13;94433.48;;;23.48;40.57
77366;BME280;66430;50.182;11.704;2023-07-16T00:41:38;94435.92;;;23.99;39.99
77366;BME280;66430;50.182;11.704;2023-07-16T00:44:04;94450.22;;;24.06;39.64
77366;BME280;66430;50.182;11.704;2023-07-16T00:46:29;94457.66;;;23.70;39.95
77366;BME280;66430;50.182;11.704;2023-07-16T00:48:55;94445.96;;;23.79;39.55
77366;BME280;66430;50.182;11.704;2023-07-16T00:51:22;94450.64;;;24.15;39.21
77366;BME280;66430;50.182;11.704;2023-07-16T00:53:46;94461.62;;;23.93;39.87
77366;BME280;66430;50.182;11.704;2023-07-16T00:56:11;94469.91;;;23.86;40.28
77366;BME280;66430;50.182;11.704;2023-07-16T00:58:36;94483.56;;;23.74;40.57
77366;BME280;66430;50.182;11.704;2023-07-16T01:01:01;94486.58;;;23.65;40.50
77366;BME280;66430;50.182;11.704;2023-07-16T01:03:27;94484.87;;;23.85;39.81
77366;BME280;66430;50.182;11.704;2023-07-16T01:05:57;94482.50;;;23.22;41.30
77366;BME280;66430;50.182;11.704;2023-07-16T01:08:22;94479.71;;;23.58;40.57
77366;BME280;66430;50.182;11.704;2023-07-16T01:10:43;94482.15;;;23.68;40.30
77366;BME280;66430;50.182;11.704;2023-07-16T01:13:08;94479.65;;;23.40;40.98
77366;BME280;66430;50.182;11.704;2023-07-16T01:15:33;94474.30;;;23.79;39.78
77366;BME280;66430;50.182;11.704;2023-07-16T01:17:59;94472.64;;;23.59;40.33
77366;BME280;66430;50.182;11.704;2023-07-16T01:20:24;94489.93;;;24.22;40.31
77366;BME280;66430;50.182;11.704;2023-07-16T01:25:31;94524.50;;;23.52;41.36
77366;BME280;66430;50.182;11.704;2023-07-16T01:27:56;94520.62;;;23.29;41.31
77366;BME280;66430;50.182;11.704;2023-07-16T01:30:07;94527.08;;;23.30;41.43
77366;BME280;66430;50.182;11.704;2023-07-16T01:32:31;94530.26;;;23.32;41.11
77366;BME280;66430;50.182;11.704;2023-07-16T01:34:57;94542.47;;;23.49;41.45
77366;BME280;66430;50.182;11.704;2023-07-16T01:37:22;94547.18;;;23.17;41.48
77366;BME280;66430;50.182;11.704;2023-07-16T01:39:47;94552.50;;;23.19;40.82
77366;BME280;66430;50.182;11.704;2023-07-16T01:42:13;94548.87;;;23.44;40.85
77366;BME280;66430;50.182;11.704;2023-07-16T01:44:38;94557.99;;;23.24;41.31
77366;BME280;66430;50.182;11.704;2023-07-16T01:47:10;94563.61;;;23.34;41.30
77366;BME280;66430;50.182;11.704;2023-07-16T01:49:29;94568.24;;;22.79;41.94
77366;BME280;66430;50.182;11.704;2023-07-16T01:51:54;94577.75;;;23.19;42.30
77366;BME280;66430;50.182;11.704;2023-07-16T01:54:19;94572.44;;;23.13;41.68
77366;BME280;66430;50.182;11.704;2023-07-16T01:56:45;94580.13;;;23.34;41.99
77366;BME280;66430;50.182;11.704;2023-07-16T01:59:10;94585.71;;;23.38;42.32
77366;BME280;66430;50.182;11.704;2023-07-16T02:01:36;94585.44;;;22.88;43.01
77366;BME280;66430;50.182;11.704;2023-07-16T02:04:01;94587.22;;;23.03;42.78
77366;BME280;66430;50.182;11.704;2023-07-16T02:06:26;94576.03;;;22.89;42.58
77366;BME280;66430;50.182;11.704;2023-07-16T02:08:57;94573.47;;;22.45;43.38
77366;BME280;66430;50.182;11.704;2023-07-16T02:11:17;94567.59;;;23.09;43.00
77366;BME280;66430;50.182;11.704;2023-07-16T02:13:43;94551.79;;;22.90;42.96
77366;BME280;66430;50.182;11.704;2023-07-16T02:16:09;94555.16;;;22.91;42.58
77366;BME280;66430;50.182;11.704;2023-07-16T02:18:34;94559.25;;;23.07;42.50
77366;BME280;66430;50.182;11.704;2023-07-16T02:20:59;94547.99;;;23.45;42.40
77366;BME280;66430;50.182;11.704;2023-07-16T02:23:25;94524.26;;;23.39;42.02
77366;BME280;66430;50.182;11.704;2023-07-16T02:25:50;94504.52;;;23.32;42.22
77366;BME280;66430;50.182;11.704;2023-07-16T02:28:15;94508.72;;;23.09;41.88
77366;BME280;66430;50.182;11.704;2023-07-16T02:30:41;94509.88;;;23.11;42.05
77366;BME280;66430;50.182;11.704;2023-07-16T02:33:06;94511.49;;;23.02;42.26
77366;BME280;66430;50.182;11.704;2023-07-16T02:35:32;94500.66;;;23.51;42.18
77366;BME280;66430;50.182;11.704;2023-07-16T02:37:57;94498.77;;;23.57;41.93
77366;BME280;66430;50.182;11.704;2023-07-16T02:40:22;94485.34;;;23.28;41.18
77366;BME280;66430;50.182;11.704;2023-07-16T02:42:47;94476.66;;;23.61;40.97
77366;BME280;66430;50.182;11.704;2023-07-16T02:45:13;94473.85;;;23.69;40.70
77366;BME280;66430;50.182;11.704;2023-07-16T02:47:38;94472.14;;;23.52;40.30
77366;BME280;66430;50.182;11.704;2023-07-16T02:50:04;94467.18;;;23.58;40.30
77366;BME280;66430;50.182;11.704;2023-07-16T02:52:29;94472.99;;;23.64;40.34
77366;BME280;66430;50.182;11.704;2023-07-16T02:54:54;94481.85;;;23.69;40.36
77366;BME280;66430;50.182;11.704;2023-07-16T02:57:21;94478.26;;;23.69;39.98
77366;BME280;66430;50.182;11.704;2023-07-16T02:59:45;94476.61;;;23.70;40.40
77366;BME280;66430;50.182;11.704;2023-07-16T03:02:11;94486.94;;;23.78;39.69
77366;BME280;66430;50.182;11.704;2023-07-16T03:04:36;94478.92;;;24.04;39.91
77366;BME280;66430;50.182;11.704;2023-07-16T03:07:02;94473.58;;;23.69;40.35
77366;BME280;66430;50.182;11.704;2023-07-16T03:09:27;94474.86;;;23.75;40.02
77366;BME280;66430;50.182;11.704;2023-07-16T03:11:52;94472.69;;;23.70;40.15
77366;BME280;66430;50.182;11.704;2023-07-16T03:14:18;94474.77;;;23.66;40.23
77366;BME280;66430;50.182;11.704;2023-07-16T03:16:43;94480.61;;;23.72;40.02
77366;BME280;66430;50.182;11.704;2023-07-16T03:19:09;94494.83;;;23.47;41.01
77366;BME280;66430;50.182;11.704;2023-07-16T03:21:34;94513.15;;;23.51;40.85
77366;BME280;66430;50.182;11.704;2023-07-16T03:23:59;94529.41;;;23.45;41.01
77366;BME280;66430;50.182;11.704;2023-07-16T03:26:25;94540.91;;;22.93;42.38
77366;BME280;66430;50.182;11.704;2023-07-16T03:28:50;94551.34;;;23.16;41.53
77366;BME280;66430;50.182;11.704;2023-07-16T03:31:16;94562.08;;;23.12;42.38
77366;BME280;66430;50.182;11.704;2023-07-16T03:33:41;94558.47;;;23.45;41.47
77366;BME280;66430;50.182;11.704;2023-07-16T03:36:06;94565.45;;;23.12;41.65
77366;BME280;66430;50.182;11.704;2023-07-16T03:38:32;94561.16;;;23.02;41.58
77366;BME280;66430;50.182;11.704;2023-07-16T03:40:57;94566.06;;;23.44;41.69
77366;BME280;66430;50.182;11.704;2023-07-16T03:43:22;94567.62;;;23.10;41.39
77366;BME280;66430;50.182;11.704;2023-07-16T03:45:49;94563.72;;;23.03;41.71
77366;BME280;66430;50.182;11.704;2023-07-16T03:48:13;94558.27;;;23.12;41.65
77366;BME280;66430;50.182;11.704;2023-07-16T03:50:38;94562.25;;;22.81;41.82
77366;BME280;66430;50.182;11.704;2023-07-16T03:53:04;94568.40;;;22.52;42.64
77366;BME280;66430;50.182;11.704;2023-07-16T03:55:29;94575.78;;;22.94;41.75
77366;BME280;66430;50.182;11.704;2023-07-16T03:57:54;94582.81;;;22.38;42.96
77366;BME280;66430;50.182;11.704;2023-07-16T04:00:20;94585.49;;;22.79;42.58
77366;BME280;66430;50.182;11.704;2023-07-16T04:02:45;94580.15;;;22.83;42.53
77366;BME280;66430;50.182;11.704;2023-07-16T04:05:10;94579.86;;;22.99;42.89
77366;BME280;66430;50.182;11.704;2023-07-16T04:07:36;94597.87;;;22.89;42.70
77366;BME280;66430;50.182;11.704;2023-07-16T04:10:01;94596.07;;;22.92;42.83
77366;BME280;66430;50.182;11.704;2023-07-16T04:12:27;94589.12;;;22.62;43.16
77366;BME280;66430;50.182;11.704;2023-07-16T04:14:55;94600.87;;;22.60;43.29
77366;BME280;66430;50.182;11.704;2023-07-16T04:17:17;94604.72;;;22.77;42.65
77366;BME280;66430;50.182;11.704;2023-07-16T04:19:43;94604.53;;;22.16;43.73
77366;BME280;66430;50.182;11.704;2023-07-16T04:22:08;94598.79;;;22.39;43.60
77366;BME280;66430;50.182;11.704;2023-07-16T04:24:33;94596.71;;;22.32;43.46
77366;BME280;66430;50.182;11.704;2023-07-16T04:26:59;94596.96;;;22.61;43.07
77366;BME280;66430;50.182;11.704;2023-07-16T04:29:24;94600.49;;;22.29;42.94
77366;BME280;66430;50.182;11.704;2023-07-16T04:31:50;94608.13;;;22.24;42.67
77366;BME280;66430;50.182;11.704;2023-07-16T04:34:15;94606.98;;;21.88;43.53
77366;BME280;66430;50.182;11.704;2023-07-16T04:36:42;94610.68;;;22.08;43.43
77366;BME280;66430;50.182;11.704;2023-07-16T04:39:06;94613.78;;;22.00;43.24
77366;BME280;66430;50.182;11.704;2023-07-16T04:41:31;94614.14;;;21.81;42.77
77366;BME280;66430;50.182;11.704;2023-07-16T04:43:56;94618.42;;;21.77;42.66
77366;BME280;66430;50.182;11.704;2023-07-16T04:46:22;94617.76;;;21.96;42.55
77366;BME280;66430;50.182;11.704;2023-07-16T04:48:47;94609.16;;;21.77;42.20
77366;BME280;66430;50.182;11.704;2023-07-16T04:51:12;94618.74;;;22.48;41.81
77366;BME280;66430;50.182;11.704;2023-07-16T04:53:38;94626.37;;;22.53;41.86
77366;BME280;66430;50.182;11.704;2023-07-16T04:56:04;94629.85;;;22.67;42.54
77366;BME280;66430;50.182;11.704;2023-07-16T04:58:29;94640.02;;;23.01;42.62
77366;BME280;66430;50.182;11.704;2023-07-16T05:00:54;94636.43;;;22.53;43.61
77366;BME280;66430;50.182;11.704;2023-07-16T05:03:19;94641.64;;;23.27;42.47
77366;BME280;66430;50.182;11.704;2023-07-16T05:05:45;94651.69;;;22.77;42.38
77366;BME280;66430;50.182;11.704;2023-07-16T05:08:10;94647.69;;;23.04;42.41
77366;BME280;66430;50.182;11.704;2023-07-16T05:10:36;94657.06;;;23.26;42.42
77366;BME280;66430;50.182;11.704;2023-07-16T05:13:01;94660.97;;;23.03;42.97
77366;BME280;66430;50.182;11.704;2023-07-16T05:15:26;94662.38;;;22.78;42.83
77366;BME280;66430;50.182;11.704;2023-07-16T05:17:52;94662.56;;;22.72;43.16
77366;BME280;66430;50.182;11.704;2023-07-16T05:20:17;94665.71;;;22.84;42.44
77366;BME280;66430;50.182;11.704;2023-07-16T05:22:42;94677.93;;;22.65;42.02
77366;BME280;66430;50.182;11.704;2023-07-16T05:25:09;94692.96;;;22.46;42.26
77366;BME280;66430;50.182;11.704;2023-07-16T05:27:33;94692.26;;;22.39;41.74
77366;BME280;66430;50.182;11.704;2023-07-16T05:29:59;94688.94;;;22.83;41.97
77366;BME280;66430;50.182;11.704;2023-07-16T05:32:24;94679.57;;;22.18;42.15
77366;BME280;66430;50.182;11.704;2023-07-16T05:34:49;94675.59;;;22.71;42.04
77366;BME280;66430;50.182;11.704;2023-07-16T05:37:15;94673.95;;;22.90;41.74
77366;BME280;66430;50.182;11.704;2023-07-16T05:39:40;94671.77;;;23.08;41.57
77366;BME280;66430;50.182;11.704;2023-07-16T05:42:06;94688.38;;;22.70;41.28
77366;BME280;66430;50.182;11.704;2023-07-16T05:44:31;94699.00;;;22.42;41.64
77366;BME280;66430;50.182;11.704;2023-07-16T05:46:56;94692.51;;;22.91;41.16
77366;BME280;66430;50.182;11.704;2023-07-16T05:49:22;94692.60;;;22.78;41.37
77366;BME280;66430;50.182;11.704;2023-07-16T05:51:47;94710.84;;;22.23;41.77
77366;BME280;66430;50.182;11.704;2023-07-16T05:54:12;94724.03;;;22.22;41.80
77366;BME280;66430;50.182;11.704;2023-07-16T05:56:37;94724.91;;;22.45;41.20
77366;BME280;66430;50.182;11.704;2023-07-16T05:59:03;94725.88;;;22.40;42.53
77366;BME280;66430;50.182;11.704;2023-07-16T06:01:29;94725.42;;;22.55;42.00
77366;BME280;66430;50.182;11.704;2023-07-16T06:03:54;94729.43;;;22.46;42.41
77366;BME280;66430;50.182;11.704;2023-07-16T06:06:19;94731.09;;;22.46;42.75
77366;BME280;66430;50.182;11.704;2023-07-16T06:08:44;94735.47;;;22.59;41.94
77366;BME280;66430;50.182;11.704;2023-07-16T06:11:10;94739.00;;;22.84;41.72
77366;BME280;66430;50.182;11.704;2023-07-16T06:13:35;94745.89;;;23.03;41.19
77366;BME280;66430;50.182;11.704;2023-07-16T06:16:01;94752.94;;;22.63;42.12
77366;BME280;66430;50.182;11.704;2023-07-16T06:18:26;94760.92;;;23.11;40.99
77366;BME280;66430;50.182;11.704;2023-07-16T06:20:52;94760.15;;;22.65;41.12
77366;BME280;66430;50.182;11.704;2023-07-16T06:23:17;94763.90;;;23.16;41.22
77366;BME280;66430;50.182;11.704;2023-07-16T06:25:42;94757.58;;;23.40;40.95
77366;BME280;66430;50.182;11.704;2023-07-16T06:28:08;94763.68;;;22.55;40.71
77366;BME280;66430;50.182;11.704;2023-07-16T06:30:33;94760.39;;;22.47;40.76
77366;BME280;66430;50.182;11.704;2023-07-16T06:32:58;94756.81;;;22.74;40.82
77366;BME280;66430;50.182;11.704;2023-07-16T06:35:23;94756.62;;;23.04;40.80
77366;BME280;66430;50.182;11.704;2023-07-16T06:37:49;94753.69;;;23.34;41.44
77366;BME280;66430;50.182;11.704;2023-07-16T06:40:15;94753.67;;;23.25;41.37
77366;BME280;66430;50.182;11.704;2023-07-16T06:42:40;94748.81;;;23.12;41.81
77366;BME280;66430;50.182;11.704;2023-07-16T06:45:07;94755.08;;;22.70;41.84
77366;BME280;66430;50.182;11.704;2023-07-16T06:47:30;94748.35;;;22.53;40.73
77366;BME280;66430;50.182;11.704;2023-07-16T06:49:56;94754.84;;;22.54;40.78
77366;BME280;66430;50.182;11.704;2023-07-16T06:52:22;94753.53;;;22.97;39.76
77366;BME280;66430;50.182;11.704;2023-07-16T06:54:46;94766.30;;;22.89;40.02
77366;BME280;66430;50.182;11.704;2023-07-16T06:57:12;94760.23;;;22.93;40.43
77366;BME280;66430;50.182;11.704;2023-07-16T06:59:37;94758.44;;;22.82;40.16
77366;BME280;66430;50.182;11.704;2023-07-16T07:02:03;94755.10;;;22.93;39.51
77366;BME280;66430;50.182;11.704;2023-07-16T07:04:27;94754.01;;;22.99;39.15
77366;BME280;66430;50.182;11.704;2023-07-16T07:06:53;94760.85;;;23.19;39.01
77366;BME280;66430;50.182;11.704;2023-07-16T07:09:18;94766.76;;;22.58;40.28
77366;BME280;66430;50.182;11.704;2023-07-16T07:11:43;94769.19;;;23.08;39.06
77366;BME280;66430;50.182;11.704;2023-07-16T07:14:09;94773.54;;;22.62;39.12
77366;BME280;66430;50.182;11.704;2023-07-16T07:16:34;94769.96;;;23.38;38.44
77366;BME280;66430;50.182;11.704;2023-07-16T07:18:59;94778.00;;;22.76;39.84
77366;BME280;66430;50.182;11.704;2023-07-16T07:21:25;94769.52;;;23.48;39.58
77366;BME280;66430;50.182;11.704;2023-07-16T07:23:50;94769.41;;;23.77;40.02
77366;BME280;66430;50.182;11.704;2023-07-16T07:26:16;94763.26;;;23.77;39.80
77366;BME280;66430;50.182;11.704;2023-07-16T07:28:41;94765.93;;;23.92;38.95
77366;BME280;66430;50.182;11.704;2023-07-16T07:31:06;94770.86;;;23.60;39.40
77366;BME280;66430;50.182;11.704;2023-07-16T07:33:31;94773.35;;;23.50;40.45
77366;BME280;66430;50.182;11.704;2023-07-16T07:35:57;94785.72;;;23.68;38.86
77366;BME280;66430;50.182;11.704;2023-07-16T07:38:22;94778.41;;;23.70;39.32
77366;BME280;66430;50.182;11.704;2023-07-16T07:40:47;94777.37;;;23.72;38.20
77366;BME280;66430;50.182;11.704;2023-07-16T07:43:12;94780.58;;;24.02;38.29
77366;BME280;66430;50.182;11.704;2023-07-16T07:45:38;94782.03;;;23.89;38.70
77366;BME280;66430;50.182;11.704;2023-07-16T07:48:03;94785.40;;;23.40;39.01
77366;BME280;66430;50.182;11.704;2023-07-16T07:50:28;94781.36;;;23.70;38.48
77366;BME280;66430;50.182;11.704;2023-07-16T07:52:54;94785.75;;;23.30;38.74
77366;BME280;66430;50.182;11.704;2023-07-16T07:55:19;94794.38;;;23.87;38.50
77366;BME280;66430;50.182;11.704;2023-07-16T07:57:44;94802.30;;;23.83;37.96
77366;BME280;66430;50.182;11.704;2023-07-16T08:00:11;94789.41;;;23.81;38.09
77366;BME280;66430;50.182;11.704;2023-07-16T08:02:35;94785.07;;;24.20;38.67
77366;BME280;66430;50.182;11.704;2023-07-16T08:05:01;94785.02;;;24.39;37.42
77366;BME280;66430;50.182;11.704;2023-07-16T08:07:26;94787.96;;;24.28;37.45
77366;BME280;66430;50.182;11.704;2023-07-16T08:09:56;94788.28;;;24.02;37.72
77366;BME280;66430;50.182;11.704;2023-07-16T08:12:17;94785.45;;;24.32;36.85
77366;BME280;66430;50.182;11.704;2023-07-16T08:14:42;94782.76;;;24.12;36.28
77366;BME280;66430;50.182;11.704;2023-07-16T08:17:08;94788.69;;;24.09;36.70
77366;BME280;66430;50.182;11.704;2023-07-16T08:19:33;94786.85;;;23.84;37.27
77366;BME280;66430;50.182;11.704;2023-07-16T08:21:58;94790.22;;;24.48;36.41
77366;BME280;66430;50.182;11.704;2023-07-16T08:24:25;94784.81;;;24.07;36.62
77366;BME280;66430;50.182;11.704;2023-07-16T08:26:49;94782.10;;;24.53;35.89
77366;BME280;66430;50.182;11.704;2023-07-16T08:29:14;94792.86;;;24.04;36.43
77366;BME280;66430;50.182;11.704;2023-07-16T08:31:39;94795.38;;;24.15;36.19
77366;BME280;66430;50.182;11.704;2023-07-16T08:34:05;94799.02;;;23.97;36.82
77366;BME280;66430;50.182;11.704;2023-07-16T08:36:32;94797.13;;;24.71;35.78
77366;BME280;66430;50.182;11.704;2023-07-16T08:38:55;94800.69;;;24.52;36.50
77366;BME280;66430;50.182;11.704;2023-07-16T08:41:21;94804.53;;;24.75;36.50
77366;BME280;66430;50.182;11.704;2023-07-16T08:43:46;94803.69;;;24.89;35.77
77366;BME280;66430;50.182;11.704;2023-07-16T08:46:12;94799.99;;;24.90;35.14
77366;BME280;66430;50.182;11.704;2023-07-16T08:48:37;94797.30;;;25.53;35.87
77366;BME280;66430;50.182;11.704;2023-07-16T08:51:03;94806.88;;;25.09;36.56
77366;BME280;66430;50.182;11.704;2023-07-16T08:53:27;94802.94;;;24.79;35.68
77366;BME280;66430;50.182;11.704;2023-07-16T08:55:53;94807.71;;;24.79;34.14
77366;BME280;66430;50.182;11.704;2023-07-16T08:58:19;94811.20;;;24.66;34.84
77366;BME280;66430;50.182;11.704;2023-07-16T09:00:44;94814.70;;;24.98;34.34
77366;BME280;66430;50.182;11.704;2023-07-16T09:03:10;94817.48;;;25.15;34.24
77366;BME280;66430;50.182;11.704;2023-07-16T09:05:35;94817.70;;;24.63;34.34
77366;BME280;66430;50.182;11.704;2023-07-16T09:07:59;94814.03;;;24.93;33.88
77366;BME280;66430;50.182;11.704;2023-07-16T09:10:25;94815.51;;;24.79;34.44
77366;BME280;66430;50.182;11.704;2023-07-16T09:12:50;94816.51;;;25.44;35.16
77366;BME280;66430;50.182;11.704;2023-07-16T09:15:18;94817.29;;;25.42;34.85
77366;BME280;66430;50.182;11.704;2023-07-16T09:17:40;94823.08;;;24.98;33.62
77366;BME280;66430;50.182;11.704;2023-07-16T09:20:07;94828.01;;;25.48;33.19
77366;BME280;66430;50.182;11.704;2023-07-16T09:22:32;94827.30;;;25.40;32.72
77366;BME280;66430;50.182;11.704;2023-07-16T09:24:56;94824.63;;;25.76;32.43
77366;BME280;66430;50.182;11.704;2023-07-16T09:27:28;94823.48;;;25.80;32.63
77366;BME280;66430;50.182;11.704;2023-07-16T09:29:47;94820.55;;;25.39;33.77
77366;BME280;66430;50.182;11.704;2023-07-16T09:32:12;94823.39;;;25.72;32.45
77366;BME280;66430;50.182;11.704;2023-07-16T09:34:38;94831.97;;;25.51;32.93
77366;BME280;66430;50.182;11.704;2023-07-16T09:37:05;94828.69;;;25.78;32.04
77366;BME280;66430;50.182;11.704;2023-07-16T09:39:28;94829.30;;;25.56;33.52
77366;BME280;66430;50.182;11.704;2023-07-16T09:41:54;94834.82;;;25.86;33.27
77366;BME280;66430;50.182;11.704;2023-07-16T09:44:19;94831.15;;;25.64;32.09
77366;BME280;66430;50.182;11.704;2023-07-16T09:46:45;94834.78;;;25.95;33.30
77366;BME280;66430;50.182;11.704;2023-07-16T09:49:10;94842.35;;;26.00;31.94
77366;BME280;66430;50.182;11.704;2023-07-16T09:51:37;94835.55;;;26.21;30.26
77366;BME280;66430;50.182;11.704;2023-07-16T09:54:01;94846.52;;;26.24;30.45
77366;BME280;66430;50.182;11.704;2023-07-16T09:56:28;94842.66;;;26.04;29.63
77366;BME280;66430;50.182;11.704;2023-07-16T09:58:51;94841.24;;;26.21;30.15
77366;BME280;66430;50.182;11.704;2023-07-16T10:01:16;94836.92;;;26.11;29.58
77366;BME280;66430;50.182;11.704;2023-07-16T10:03:49;94830.71;;;26.20;29.82
77366;BME280;66430;50.182;11.704;2023-07-16T10:06:09;94839.02;;;26.21;29.00
77366;BME280;66430;50.182;11.704;2023-07-16T10:08:34;94833.28;;;25.83;29.49
77366;BME280;66430;50.182;11.704;2023-07-16T10:10:57;94835.37;;;25.97;29.32
77366;BME280;66430;50.182;11.704;2023-07-16T10:13:23;94830.95;;;26.34;30.53
77366;BME280;66430;50.182;11.704;2023-07-16T10:15:54;94834.73;;;26.57;28.97
77366;BME280;66430;50.182;11.704;2023-07-16T10:20:38;94834.11;;;26.13;30.30
77366;BME280;66430;50.182;11.704;2023-07-16T10:23:11;94825.37;;;26.21;28.53
77366;BME280;66430;50.182;11.704;2023-07-16T10:25:30;94833.40;;;26.88;29.46
77366;BME280;66430;50.182;11.704;2023-07-16T10:27:55;94825.60;;;26.52;28.66
77366;BME280;66430;50.182;11.704;2023-07-16T10:30:20;94824.42;;;26.76;27.73
77366;BME280;66430;50.182;11.704;2023-07-16T10:32:46;94835.22;;;26.57;28.15
77366;BME280;66430;50.182;11.704;2023-07-16T10:35:11;94823.53;;;26.28;28.15
77366;BME280;66430;50.182;11.704;2023-07-16T10:37:37;94824.01;;;26.47;28.38
77366;BME280;66430;50.182;11.704;2023-07-16T10:40:03;94828.17;;;26.51;29.40
77366;BME280;66430;50.182;11.704;2023-07-16T10:42:28;94826.37;;;26.92;28.31
77366;BME280;66430;50.182;11.704;2023-07-16T10:44:54;94824.06;;;27.12;27.87
77366;BME280;66430;50.182;11.704;2023-07-16T10:47:20;94823.70;;;27.13;28.47
77366;BME280;66430;50.182;11.704;2023-07-16T10:49:43;94817.08;;;26.93;27.27
77366;BME280;66430;50.182;11.704;2023-07-16T10:52:08;94813.22;;;27.56;27.38
77366;BME280;66430;50.182;11.704;2023-07-16T10:54:33;94807.47;;;27.47;27.65
77366;BME280;66430;50.182;11.704;2023-07-16T10:56:59;94803.79;;;27.33;26.81
77366;BME280;66430;50.182;11.704;2023-07-16T10:59:24;94806.41;;;26.83;26.49
77366;BME280;66430;50.182;11.704;2023-07-16T11:01:50;94815.50;;;27.10;27.22
77366;BME280;66430;50.182;11.704;2023-07-16T11:04:15;94820.32;;;27.23;26.94
77366;BME280;66430;50.182;11.704;2023-07-16T11:06:40;94819.10;;;26.78;25.80
77366;BME280;66430;50.182;11.704;2023-07-16T11:09:07;94816.40;;;26.27;27.62
77366;BME280;66430;50.182;11.704;2023-07-16T11:11:31;94812.80;;;26.62;27.41
77366;BME280;66430;50.182;11.704;2023-07-16T11:13:56;94813.37;;;26.22;28.21
77366;BME280;66430;50.182;11.704;2023-07-16T11:16:21;94820.89;;;26.57;28.35
77366;BME280;66430;50.182;11.704;2023-07-16T11:18:47;94822.36;;;26.83;28.18
77366;BME280;66430;50.182;11.704;2023-07-16T11:21:12;94820.49;;;26.75;28.02
77366;BME280;66430;50.182;11.704;2023-07-16T11:23:37;94809.48;;;26.92;28.29
77366;BME280;66430;50.182;11.704;2023-07-16T11:26:03;94805.69;;;27.25;27.86
77366;BME280;66430;50.182;11.704;2023-07-16T11:28:36;94817.72;;;27.24;27.47
77366;BME280;66430;50.182;11.704;2023-07-16T11:30:53;94820.16;;;27.06;27.83
77366;BME280;66430;50.182;11.704;2023-07-16T11:33:18;94806.44;;;26.93;26.91
77366;BME280;66430;50.182;11.704;2023-07-16T11:35:44;94814.08;;;27.02;27.58
77366;BME280;66430;50.182;11.704;2023-07-16T11:38:09;94811.42;;;27.60;27.61
77366;BME280;66430;50.182;11.704;2023-07-16T11:40:35;94809.29;;;26.65;26.75
77366;BME280;66430;50.182;11.704;2023-07-16T11:43:07;94814.60;;;27.34;25.90
77366;BME280;66430;50.182;11.704;2023-07-16T11:45:26;94813.87;;;27.84;26.79
77366;BME280;66430;50.182;11.704;2023-07-16T11:47:50;94815.50;;;26.92;26.82
77366;BME280;66430;50.182;11.704;2023-07-16T11:50:20;94816.91;;;26.98;26.58
77366;BME280;66430;50.182;11.704;2023-07-16T11:52:41;94824.09;;;27.13;26.61
77366;BME280;66430;50.182;11.704;2023-07-16T11:55:08;94826.94;;;26.92;27.49
77366;BME280;66430;50.182;11.704;2023-07-16T11:57:31;94823.10;;;26.28;26.75
77366;BME280;66430;50.182;11.704;2023-07-16T11:59:57;94821.03;;;26.62;27.04
77366;BME280;66430;50.182;11.704;2023-07-16T12:02:24;94819.65;;;26.80;27.56
77366;BME280;66430;50.182;11.704;2023-07-16T12:04:47;94818.94;;;26.82;27.61
77366;BME280;66430;50.182;11.704;2023-07-16T12:07:12;94817.60;;;26.80;26.86
77366;BME280;66430;50.182;11.704;2023-07-16T12:09:38;94820.37;;;27.20;26.95
77366;BME280;66430;50.182;11.704;2023-07-16T12:12:04;94818.11;;;26.41;26.52
77366;BME280;66430;50.182;11.704;2023-07-16T12:14:28;94821.58;;;27.33;25.80
77366;BME280;66430;50.182;11.704;2023-07-16T12:16:54;94824.86;;;26.89;27.21
77366;BME280;66430;50.182;11.704;2023-07-16T12:19:19;94818.80;;;27.12;25.41
77366;BME280;66430;50.182;11.704;2023-07-16T12:21:45;94816.99;;;26.67;27.18
77366;BME280;66430;50.182;11.704;2023-07-16T12:24:10;94820.94;;;26.84;27.58
77366;BME280;66430;50.182;11.704;2023-07-16T12:26:35;94816.63;;;26.99;26.81
77366;BME280;66430;50.182;11.704;2023-07-16T12:29:01;94816.26;;;27.14;25.70
77366;BME280;66430;50.182;11.704;2023-07-16T12:31:25;94816.48;;;26.70;26.16
77366;BME280;66430;50.182;11.704;2023-07-16T12:33:51;94819.18;;;27.15;27.04
77366;BME280;66430;50.182;11.704;2023-07-16T12:36:16;94810.86;;;27.46;25.52
77366;BME280;66430;50.182;11.704;2023-07-16T12:38:41;94819.40;;;27.22;25.54
77366;BME280;66430;50.182;11.704;2023-07-16T12:41:07;94814.95;;;27.03;25.83
77366;BME280;66430;50.182;11.704;2023-07-16T12:43:32;94812.87;;;27.17;25.77